Time;durP1;ratioP1;P1;durP2;ratioP2;P2;SDS_P1;SDS_P2;PMS_P1;PMS_P2;Temp;Humidity;BMP_temperature;BMP_pressure;BME280_temperature;BME280_humidity;BME280_pressure;Samples;Min_cycle;Max_cycle;Signal;HPM_P1;HPM_P2
2022/06/12 00:00:30;;;;;;;14.48;4.45;;;13.10;99.90;;;;;;5071732;28;20123;-73
2022/06/12 00:02:59;;;;;;;11.45;3.63;;;13.10;99.90;;;;;;5065209;28;20043;-74
2022/06/12 00:05:27;;;;;;;15.13;4.25;;;13.20;99.90;;;;;;5073139;28;20032;-74
2022/06/12 00:07:53;;;;;;;11.23;4.15;;;13.10;99.90;;;;;;5054883;28;20044;-73
2022/06/12 00:10:19;;;;;;;14.20;4.40;;;13.10;99.90;;;;;;5071819;28;20047;-73
2022/06/12 00:12:46;;;;;;;12.57;3.75;;;13.10;99.90;;;;;;5066612;28;20036;-73
2022/06/12 00:15:15;;;;;;;14.55;4.25;;;13.10;99.90;;;;;;5064146;28;20032;-74
2022/06/12 00:17:43;;;;;;;12.38;3.92;;;13.10;99.90;;;;;;5073827;28;20040;-74
2022/06/12 00:20:12;;;;;;;13.50;4.05;;;13.00;99.90;;;;;;5073021;28;20060;-74
2022/06/12 00:22:38;;;;;;;9.52;3.65;;;13.00;99.90;;;;;;5072960;28;20050;-73
2022/06/12 00:25:06;;;;;;;10.38;4.10;;;13.00;99.90;;;;;;5076324;28;20031;-74
2022/06/12 00:27:32;;;;;;;10.00;4.00;;;13.00;99.90;;;;;;5077924;28;20062;-74
2022/06/12 00:29:58;;;;;;;13.35;4.22;;;13.00;99.90;;;;;;5071901;28;20048;-73
2022/06/12 00:32:29;;;;;;;9.32;4.00;;;13.00;99.90;;;;;;5073541;28;20114;-74
2022/06/12 00:34:56;;;;;;;14.82;4.43;;;13.00;99.90;;;;;;5073545;28;20139;-74
2022/06/12 00:37:24;;;;;;;11.00;3.92;;;13.00;99.90;;;;;;5064738;28;20036;-74
2022/06/12 00:39:52;;;;;;;8.77;3.75;;;12.90;99.90;;;;;;5069704;28;20072;-74
2022/06/12 00:42:29;;;;;;;12.23;4.50;;;12.90;99.90;;;;;;5083235;28;20067;-74
2022/06/12 00:44:59;;;;;;;11.43;4.20;;;12.90;99.90;;;;;;5071443;28;20088;-73
2022/06/12 00:47:25;;;;;;;14.05;4.15;;;12.90;99.90;;;;;;5072904;28;20089;-74
2022/06/12 00:49:53;;;;;;;11.38;4.32;;;12.80;99.90;;;;;;5070273;28;20109;-74
2022/06/12 00:52:32;;;;;;;15.40;4.47;;;12.90;99.90;;;;;;5071823;28;20529;-73
2022/06/12 00:55:24;;;;;;;15.60;4.20;;;12.90;99.90;;;;;;5065029;28;20063;-73
2022/06/12 00:57:57;;;;;;;15.30;4.00;;;12.90;99.90;;;;;;5069607;28;20044;-73
2022/06/12 01:00:23;;;;;;;13.00;4.30;;;12.80;99.90;;;;;;5068036;28;20043;-74
2022/06/12 01:02:49;;;;;;;11.65;4.00;;;12.80;99.90;;;;;;5069067;28;20039;-73
2022/06/12 01:08:04;;;;;;;13.18;4.22;;;12.70;99.90;;;;;;5085384;28;20054;-74
2022/06/12 01:10:31;;;;;;;18.15;4.53;;;12.70;99.90;;;;;;5072561;28;20052;-74
2022/06/12 01:13:04;;;;;;;10.82;4.50;;;12.70;99.90;;;;;;5069880;28;20040;-74
2022/06/12 01:15:51;;;;;;;10.95;3.83;;;12.70;99.90;;;;;;5081984;28;20079;-74
2022/06/12 01:18:21;;;;;;;11.93;3.67;;;12.70;99.90;;;;;;5048193;28;20039;-74
2022/06/12 01:21:15;;;;;;;11.25;3.88;;;12.70;99.90;;;;;;5068498;28;20032;-74
2022/06/12 01:24:17;;;;;;;11.50;3.72;;;12.60;99.90;;;;;;5082136;28;20529;-73
2022/06/12 01:27:12;;;;;;;12.25;3.50;;;12.60;99.90;;;;;;5063366;28;20040;-74
2022/06/12 01:30:07;;;;;;;14.13;3.40;;;12.60;99.90;;;;;;5047295;28;20104;-74
2022/06/12 01:32:36;;;;;;;9.93;3.53;;;12.60;99.90;;;;;;5066025;28;20051;-73
2022/06/12 01:35:11;;;;;;;17.70;3.80;;;12.60;99.90;;;;;;5071672;28;20035;-74
2022/06/12 01:38:01;;;;;;;11.07;3.75;;;12.60;99.90;;;;;;5072721;28;20044;-74
2022/06/12 01:40:42;;;;;;;9.40;3.65;;;12.60;99.90;;;;;;5072682;28;20044;-73
2022/06/12 01:43:27;;;;;;;11.40;3.67;;;12.50;99.90;;;;;;5068554;28;20040;-74
2022/06/12 01:46:15;;;;;;;14.55;4.20;;;12.50;99.90;;;;;;5050587;28;20048;-73
2022/06/12 01:48:53;;;;;;;10.32;3.92;;;12.50;99.90;;;;;;5087507;28;20127;-74
2022/06/12 01:51:32;;;;;;;11.00;4.28;;;12.50;99.90;;;;;;5066477;28;20079;-74
2022/06/12 01:54:03;;;;;;;11.45;4.15;;;12.50;99.90;;;;;;5068541;28;20090;-74
2022/06/12 01:56:35;;;;;;;9.63;3.92;;;12.40;99.90;;;;;;5066534;28;20091;-74
2022/06/12 01:59:15;;;;;;;11.57;4.30;;;12.40;99.90;;;;;;5064602;28;20032;-73
2022/06/12 02:01:57;;;;;;;11.02;4.00;;;12.40;99.90;;;;;;5067309;28;20036;-73
2022/06/12 02:04:44;;;;;;;13.85;4.82;;;12.30;99.90;;;;;;5046732;28;20036;-73
2022/06/12 02:07:21;;;;;;;13.00;4.55;;;12.30;99.90;;;;;;5071021;28;20046;-73
2022/06/12 02:10:04;;;;;;;10.27;4.28;;;12.30;99.90;;;;;;5056726;28;20035;-74
2022/06/12 02:15:20;;;;;;;13.32;4.35;;;12.20;99.90;;;;;;5068813;28;20502;-73
2022/06/12 02:18:12;;;;;;;10.73;4.18;;;12.20;99.90;;;;;;5068822;28;20062;-74
2022/06/12 02:20:43;;;;;;;11.50;3.83;;;12.20;99.90;;;;;;5051202;28;20056;-73
2022/06/12 02:23:17;;;;;;;12.98;4.15;;;12.10;99.90;;;;;;5070765;28;21506;-74
2022/06/12 02:25:46;;;;;;;12.15;3.92;;;12.20;99.90;;;;;;5068374;28;20081;-74
2022/06/12 02:28:21;;;;;;;10.48;3.60;;;12.10;99.90;;;;;;5064294;28;20047;-73
2022/06/12 02:30:55;;;;;;;11.57;4.03;;;12.10;99.90;;;;;;5076922;28;20065;-74
2022/06/12 02:33:28;;;;;;;11.48;4.35;;;12.20;99.90;;;;;;5071397;28;20036;-74
2022/06/12 02:36:19;;;;;;;9.50;3.70;;;12.10;99.90;;;;;;5064728;28;20046;-74
2022/06/12 02:38:50;;;;;;;13.80;4.47;;;12.10;99.90;;;;;;5072916;28;20043;-73
2022/06/12 02:41:33;;;;;;;12.85;4.18;;;12.20;99.90;;;;;;5070309;28;20058;-74
2022/06/12 02:44:04;;;;;;;11.60;4.40;;;12.10;99.90;;;;;;5076886;28;20032;-74
2022/06/12 02:46:45;;;;;;;14.40;4.90;;;12.10;99.90;;;;;;5071179;28;20443;-74
2022/06/12 02:49:13;;;;;;;13.07;4.35;;;12.10;99.90;;;;;;5071077;28;20044;-74
2022/06/12 02:52:01;;;;;;;10.43;4.45;;;12.00;99.90;;;;;;5070316;28;20056;-74
2022/06/12 02:54:34;;;;;;;13.73;4.53;;;12.00;99.90;;;;;;5067347;28;20039;-74
2022/06/12 02:57:09;;;;;;;10.07;3.90;;;12.00;99.90;;;;;;5069638;28;20036;-73
2022/06/12 02:59:56;;;;;;;15.13;4.00;;;12.00;99.90;;;;;;5077180;28;20996;-74
2022/06/12 03:02:39;;;;;;;10.05;4.22;;;11.90;99.90;;;;;;5088814;28;20036;-74
2022/06/12 03:05:23;;;;;;;9.95;3.88;;;11.90;99.90;;;;;;5087553;28;20675;-73
2022/06/12 03:07:53;;;;;;;7.78;3.80;;;11.80;99.90;;;;;;5074781;28;20119;-74
2022/06/12 03:10:26;;;;;;;12.60;4.18;;;11.80;99.90;;;;;;5071749;28;20478;-74
2022/06/12 03:12:51;;;;;;;11.70;4.30;;;11.80;99.90;;;;;;5075258;28;20064;-73
2022/06/12 03:15:49;;;;;;;10.18;4.00;;;11.80;99.90;;;;;;5072167;28;20098;-74
2022/06/12 03:18:24;;;;;;;9.18;4.22;;;11.80;99.90;;;;;;5055799;28;20055;-73
2022/06/12 03:21:17;;;;;;;10.68;3.80;;;11.80;99.90;;;;;;5086481;28;20040;-74
2022/06/12 03:23:48;;;;;;;9.07;3.97;;;11.80;99.90;;;;;;5074605;28;20401;-74
2022/06/12 03:26:29;;;;;;;10.90;3.95;;;11.70;99.90;;;;;;5070041;28;20159;-73
2022/06/12 03:29:31;;;;;;;11.18;4.63;;;11.80;99.90;;;;;;5052002;28;20043;-73
2022/06/12 03:32:29;;;;;;;10.30;3.88;;;11.80;99.90;;;;;;5073506;28;20082;-74
2022/06/12 03:35:03;;;;;;;11.43;4.30;;;11.80;99.90;;;;;;5078372;28;20040;-73
2022/06/12 03:37:43;;;;;;;13.02;4.05;;;11.80;99.90;;;;;;5071081;28;20478;-73
2022/06/12 03:40:24;;;;;;;11.18;4.55;;;11.80;99.90;;;;;;5085540;28;20060;-73
2022/06/12 03:42:53;;;;;;;14.85;3.95;;;11.80;99.90;;;;;;5052301;28;20032;-74
2022/06/12 03:45:28;;;;;;;8.85;3.92;;;11.80;99.90;;;;;;5053146;28;20043;-74
2022/06/12 03:48:06;;;;;;;11.73;3.80;;;11.80;99.90;;;;;;5063203;28;20174;-73
2022/06/12 03:50:46;;;;;;;8.65;3.47;;;11.80;99.90;;;;;;5068921;28;20155;-74
2022/06/12 03:53:34;;;;;;;7.53;3.03;;;11.80;99.90;;;;;;5068641;28;20646;-74
2022/06/12 03:59:18;;;;;;;;;;;11.90;99.90;;;;;;5071014;28;20558;-74
2022/06/12 04:01:46;;;;;;;11.27;3.28;;;11.90;99.90;;;;;;5073123;28;19963;-74
2022/06/12 04:04:13;;;;;;;7.57;3.33;;;11.90;99.90;;;;;;5072885;28;20477;-74
2022/06/12 04:06:40;;;;;;;9.32;3.00;;;11.90;99.90;;;;;;5084529;28;20069;-74
2022/06/12 04:09:19;;;;;;;10.75;3.58;;;11.90;99.90;;;;;;5052427;28;20058;-73
2022/06/12 04:11:54;;;;;;;9.40;3.40;;;11.90;99.90;;;;;;5075206;28;20055;-73
2022/06/12 04:14:24;;;;;;;10.73;3.28;;;12.00;99.90;;;;;;5064934;28;20036;-74
2022/06/12 04:16:56;;;;;;;9.75;3.00;;;12.00;99.90;;;;;;5065812;28;22469;-74
2022/06/12 04:19:24;;;;;;;9.40;3.50;;;11.90;99.90;;;;;;5069833;28;20051;-74
2022/06/12 04:22:00;;;;;;;13.93;3.28;;;12.00;99.90;;;;;;5072390;28;20261;-74
2022/06/12 04:24:39;;;;;;;9.23;3.25;;;12.00;99.90;;;;;;5074414;28;20036;-73
2022/06/12 04:27:14;;;;;;;13.70;3.40;;;12.10;99.90;;;;;;5074726;28;20047;-74
2022/06/12 04:29:54;;;;;;;9.30;3.58;;;12.10;99.90;;;;;;5088723;28;20079;-74
2022/06/12 04:32:20;;;;;;;15.90;3.58;;;12.10;99.90;;;;;;5076828;28;20044;-73
2022/06/12 04:34:46;;;;;;;11.55;3.60;;;12.20;99.90;;;;;;5071357;28;20028;-74
2022/06/12 04:37:17;;;;;;;12.93;3.63;;;12.20;99.90;;;;;;5049844;28;20123;-73
2022/06/12 04:39:44;;;;;;;13.60;4.32;;;12.30;99.90;;;;;;5071467;28;20040;-73
2022/06/12 04:42:13;;;;;;;14.43;3.60;;;12.30;99.90;;;;;;5094232;28;20031;-73
2022/06/12 04:44:39;;;;;;;9.35;3.85;;;12.30;99.90;;;;;;5087652;28;20092;-73
2022/06/12 04:47:06;;;;;;;14.43;3.53;;;12.40;99.90;;;;;;5067644;28;20060;-74
2022/06/12 04:49:35;;;;;;;11.15;3.58;;;12.50;99.90;;;;;;5085831;28;20101;-74
2022/06/12 04:52:05;;;;;;;11.45;3.58;;;12.50;99.90;;;;;;5069253;28;20036;-73
2022/06/12 04:54:33;;;;;;;11.65;3.15;;;12.50;99.90;;;;;;5050107;28;20089;-74
2022/06/12 04:56:59;;;;;;;12.15;3.35;;;12.60;99.90;;;;;;5069981;28;20032;-74
2022/06/12 04:59:25;;;;;;;11.90;3.70;;;12.70;99.90;;;;;;5066453;28;20055;-74
2022/06/12 05:01:51;;;;;;;16.17;3.85;;;12.70;99.90;;;;;;5070963;28;20558;-74
2022/06/12 05:04:18;;;;;;;15.35;4.05;;;12.70;99.90;;;;;;5083846;28;20127;-74
2022/06/12 05:06:45;;;;;;;11.35;3.35;;;12.80;99.90;;;;;;5070301;28;20133;-74
2022/06/12 05:09:13;;;;;;;12.55;3.58;;;12.90;99.90;;;;;;5068045;28;20131;-73
2022/06/12 05:11:40;;;;;;;12.57;3.95;;;12.90;99.90;;;;;;5068561;28;20042;-73
2022/06/12 05:14:10;;;;;;;14.27;3.65;;;13.00;99.90;;;;;;5066741;28;20163;-73
2022/06/12 05:16:43;;;;;;;14.45;3.85;;;13.10;99.90;;;;;;5066881;28;20048;-74
2022/06/12 05:19:12;;;;;;;15.27;3.55;;;13.20;99.90;;;;;;5064759;28;20132;-74
2022/06/12 05:21:38;;;;;;;13.88;3.78;;;13.40;99.90;;;;;;5069300;28;20036;-74
2022/06/12 05:24:05;;;;;;;16.77;3.70;;;13.50;99.90;;;;;;5070040;28;20042;-74
2022/06/12 05:26:33;;;;;;;17.40;3.80;;;13.50;99.90;;;;;;5065275;28;20036;-74
2022/06/12 05:29:05;;;;;;;23.50;3.53;;;13.60;99.90;;;;;;5064687;28;20039;-73
2022/06/12 05:31:31;;;;;;;20.27;3.90;;;13.80;99.90;;;;;;5071400;28;20126;-74
2022/06/12 05:33:57;;;;;;;19.33;4.10;;;13.90;99.90;;;;;;5065229;28;20305;-74
2022/06/12 05:36:23;;;;;;;16.30;3.63;;;14.00;99.90;;;;;;5065796;28;20058;-74
2022/06/12 05:38:49;;;;;;;14.40;3.90;;;14.10;99.90;;;;;;5079971;28;20592;-74
2022/06/12 05:41:16;;;;;;;15.88;4.30;;;14.20;99.90;;;;;;5030919;28;20135;-74
2022/06/12 05:43:42;;;;;;;17.10;4.38;;;14.30;99.90;;;;;;5064271;28;20036;-74
2022/06/12 05:46:13;;;;;;;15.27;3.90;;;14.40;99.90;;;;;;5064193;28;20054;-75
2022/06/12 05:48:40;;;;;;;16.35;3.85;;;14.50;99.90;;;;;;5063966;28;20068;-74
2022/06/12 05:51:07;;;;;;;16.80;3.95;;;14.50;99.90;;;;;;5072476;28;20043;-73
2022/06/12 05:53:36;;;;;;;16.30;4.03;;;14.60;99.90;;;;;;5062017;28;20143;-73
2022/06/12 05:56:08;;;;;;;20.48;4.20;;;14.80;99.90;;;;;;5064945;28;20115;-74
2022/06/12 05:58:36;;;;;;;20.55;4.25;;;15.00;99.90;;;;;;5064648;28;20048;-74
2022/06/12 06:01:10;;;;;;;21.85;4.57;;;15.10;99.90;;;;;;5048586;28;20047;-74
2022/06/12 06:03:36;;;;;;;16.25;4.50;;;15.30;99.90;;;;;;5067539;28;20043;-74
2022/06/12 06:06:02;;;;;;;20.70;4.60;;;15.40;99.90;;;;;;5064198;28;20040;-73
2022/06/12 06:08:27;;;;;;;18.60;4.50;;;15.40;99.90;;;;;;5071795;28;20078;-74
2022/06/12 06:10:54;;;;;;;17.77;4.60;;;15.50;99.90;;;;;;5068787;28;20490;-74
2022/06/12 06:13:20;;;;;;;18.88;4.63;;;15.50;99.90;;;;;;5070983;28;20052;-73
2022/06/12 06:15:47;;;;;;;22.35;5.07;;;15.60;99.90;;;;;;5068156;28;20040;-74
2022/06/12 06:18:13;;;;;;;20.25;4.40;;;15.50;99.90;;;;;;5060152;28;20683;-73
2022/06/12 06:20:39;;;;;;;15.02;4.00;;;15.50;99.90;;;;;;5065413;28;20035;-74
2022/06/12 06:23:06;;;;;;;20.63;5.00;;;15.60;99.90;;;;;;5065874;28;20093;-73
2022/06/12 06:25:34;;;;;;;18.23;4.60;;;15.60;99.90;;;;;;5072873;28;20379;-73
2022/06/12 06:28:00;;;;;;;17.83;4.10;;;15.70;99.90;;;;;;5067840;28;20402;-72
2022/06/12 06:30:28;;;;;;;18.63;4.45;;;15.80;99.90;;;;;;5064616;28;20041;-73
2022/06/12 06:32:54;;;;;;;18.33;5.30;;;15.80;99.90;;;;;;5068648;28;20076;-73
2022/06/12 06:35:20;;;;;;;19.00;4.68;;;15.80;99.90;;;;;;5035100;28;20091;-73
2022/06/12 06:37:48;;;;;;;18.60;5.22;;;15.80;99.90;;;;;;5072786;28;20056;-73
2022/06/12 06:40:16;;;;;;;16.38;4.90;;;15.80;99.90;;;;;;5082753;28;20044;-74
2022/06/12 06:42:41;;;;;;;22.08;5.05;;;15.80;99.90;;;;;;5069451;28;20041;-74
2022/06/12 06:47:52;;;;;;;21.58;5.18;;;16.10;99.90;;;;;;5068097;28;20048;-74
2022/06/12 06:50:20;;;;;;;19.17;4.82;;;16.20;99.90;;;;;;5063843;28;20047;-74
2022/06/12 06:52:46;;;;;;;22.67;5.32;;;16.30;99.90;;;;;;5063290;28;20032;-73
2022/06/12 06:55:13;;;;;;;21.42;5.25;;;16.40;99.90;;;;;;5066295;28;20497;-73
2022/06/12 06:57:42;;;;;;;20.45;4.93;;;16.50;99.90;;;;;;5074618;28;20044;-74
2022/06/12 07:00:12;;;;;;;24.02;5.40;;;16.60;99.90;;;;;;5049817;28;20552;-74
2022/06/12 07:02:39;;;;;;;16.60;5.53;;;16.60;99.90;;;;;;5065503;28;21054;-73
2022/06/12 07:05:05;;;;;;;24.38;5.45;;;16.70;99.90;;;;;;5081684;28;20490;-73
2022/06/12 07:07:33;;;;;;;18.70;4.95;;;16.80;99.90;;;;;;5055076;28;20042;-73
2022/06/12 07:09:59;;;;;;;23.15;5.25;;;16.70;99.90;;;;;;5075442;28;20079;-73
2022/06/12 07:12:25;;;;;;;25.48;5.65;;;16.80;99.90;;;;;;5056869;28;20101;-73
2022/06/12 07:14:50;;;;;;;21.08;5.72;;;17.00;99.90;;;;;;5057667;28;20063;-73
2022/06/12 07:17:17;;;;;;;21.15;5.43;;;17.00;99.90;;;;;;5090848;28;20032;-73
2022/06/12 07:19:44;;;;;;;18.90;5.60;;;17.10;99.90;;;;;;5072976;28;20062;-72
2022/06/12 07:22:10;;;;;;;22.15;5.70;;;17.30;99.90;;;;;;5089769;28;20736;-73
2022/06/12 07:24:36;;;;;;;23.83;5.53;;;17.40;99.90;;;;;;5072677;28;20044;-73
2022/06/12 07:27:03;;;;;;;21.10;5.07;;;17.50;99.90;;;;;;5091894;28;20036;-72
2022/06/12 07:29:29;;;;;;;23.27;5.90;;;17.50;99.90;;;;;;5088688;28;20036;-73
2022/06/12 07:31:55;;;;;;;23.13;5.70;;;17.60;99.90;;;;;;5070993;28;20683;-72
2022/06/12 07:34:21;;;;;;;19.33;4.57;;;17.80;99.90;;;;;;5090339;28;20667;-72
2022/06/12 07:36:50;;;;;;;19.30;4.95;;;17.90;99.90;;;;;;5076115;28;20667;-72
2022/06/12 07:39:29;;;;;;;20.02;5.10;;;18.10;99.90;;;;;;5033297;28;20055;-72
2022/06/12 07:41:56;;;;;;;24.10;5.32;;;18.20;99.90;;;;;;5088323;28;20581;-72
2022/06/12 07:44:25;;;;;;;22.02;5.28;;;18.30;99.90;;;;;;5090599;28;20036;-72
2022/06/12 07:46:53;;;;;;;15.20;5.07;;;18.30;99.90;;;;;;5087348;28;20046;-72
2022/06/12 07:49:21;;;;;;;18.95;5.07;;;18.40;99.90;;;;;;5051996;28;20047;-71
2022/06/12 07:51:48;;;;;;;19.58;5.00;;;18.60;99.90;;;;;;5066267;28;20048;-72
2022/06/12 07:54:14;;;;;;;19.23;5.00;;;18.70;99.90;;;;;;5073306;28;20047;-73
2022/06/12 07:56:41;;;;;;;20.45;5.32;;;18.80;99.90;;;;;;5037238;28;20494;-73
2022/06/12 07:59:08;;;;;;;21.35;5.20;;;19.00;99.90;;;;;;5069617;28;20041;-73
2022/06/12 08:01:36;;;;;;;16.90;4.53;;;19.10;99.90;;;;;;5081486;28;20563;-73
2022/06/12 08:04:03;;;;;;;20.08;5.25;;;19.20;99.90;;;;;;5063747;28;20051;-74
2022/06/12 08:06:29;;;;;;;21.98;5.32;;;19.40;99.90;;;;;;5065877;28;20058;-75
2022/06/12 08:08:57;;;;;;;21.10;5.13;;;19.50;99.90;;;;;;5078802;28;20044;-74
2022/06/12 08:11:25;;;;;;;20.10;4.80;;;19.50;99.90;;;;;;5085985;28;20043;-74
2022/06/12 08:13:52;;;;;;;14.63;4.38;;;19.60;99.90;;;;;;5067916;28;20058;-73
2022/06/12 08:16:19;;;;;;;20.35;4.70;;;19.60;99.90;;;;;;5073691;28;20040;-76
2022/06/12 08:18:45;;;;;;;20.10;4.75;;;19.60;99.90;;;;;;5057950;28;20043;-80
2022/06/12 08:21:13;;;;;;;13.80;3.88;;;19.70;99.90;;;;;;5075022;28;20036;-80
2022/06/12 08:23:50;;;;;;;19.90;4.60;;;19.80;99.90;;;;;;5063978;28;20043;-82
2022/06/12 08:26:27;;;;;;;25.83;5.43;;;19.80;99.90;;;;;;5053571;28;20545;-81
2022/06/12 08:28:57;;;;;;;23.98;4.95;;;19.90;99.90;;;;;;5061174;28;20047;-81
2022/06/12 08:31:35;;;;;;;15.13;4.05;;;19.90;99.90;;;;;;5064310;28;20028;-81
2022/06/12 08:34:05;;;;;;;15.82;4.30;;;19.90;99.90;;;;;;5073680;28;20506;-81
2022/06/12 08:36:31;;;;;;;39.05;5.13;;;20.10;99.90;;;;;;5075817;28;20036;-80
2022/06/12 08:38:57;;;;;;;17.88;4.97;;;20.10;99.90;;;;;;5075740;28;20039;-80
2022/06/12 08:41:33;;;;;;;26.73;5.57;;;20.20;99.90;;;;;;5077293;28;20402;-81
2022/06/12 08:44:21;;;;;;;20.65;4.93;;;20.40;99.90;;;;;;5074892;28;20036;-81
2022/06/12 08:47:10;;;;;;;19.00;4.35;;;20.40;99.90;;;;;;5076050;28;20044;-80
2022/06/12 08:49:44;;;;;;;17.60;3.92;;;20.50;99.90;;;;;;5078090;28;20105;-80
2022/06/12 08:52:20;;;;;;;14.02;4.00;;;20.50;99.90;;;;;;5070319;28;20066;-80
2022/06/12 08:55:03;;;;;;;17.50;4.80;;;20.60;99.90;;;;;;5075262;28;20044;-81
2022/06/12 08:57:38;;;;;;;16.58;4.25;;;20.80;99.90;;;;;;5060089;28;20061;-79
2022/06/12 09:00:15;;;;;;;17.25;4.25;;;20.80;99.90;;;;;;5076362;28;20031;-80
2022/06/12 09:02:43;;;;;;;17.80;4.72;;;21.00;99.90;;;;;;5074910;28;20419;-80
2022/06/12 09:05:15;;;;;;;39.13;5.18;;;21.20;99.90;;;;;;5059558;28;20085;-81
2022/06/12 09:08:36;;;;;;;15.52;4.30;;;21.30;99.90;;;;;;5075167;28;21850;-82
2022/06/12 09:11:29;;;;;;;15.18;4.00;;;21.40;99.90;;;;;;5040738;28;20491;-80
2022/06/12 09:14:09;;;;;;;14.57;3.97;;;21.60;99.90;;;;;;5076834;28;20093;-80
2022/06/12 09:16:35;;;;;;;22.35;4.63;;;21.60;99.90;;;;;;5056845;28;20126;-81
2022/06/12 09:19:30;;;;;;;17.27;3.35;;;21.40;99.90;;;;;;5075270;28;20143;-80
2022/06/12 09:22:16;;;;;;;14.27;4.00;;;21.30;99.90;;;;;;5064147;28;20060;-81
2022/06/12 09:25:03;;;;;;;17.55;3.90;;;21.20;99.90;;;;;;5064709;28;20165;-81
2022/06/12 09:27:41;;;;;;;12.95;3.65;;;21.10;99.90;;;;;;5070325;28;20058;-81
2022/06/12 09:30:13;;;;;;;12.73;3.63;;;21.00;99.90;;;;;;5056600;28;20100;-81
2022/06/12 09:32:54;;;;;;;;;;;20.90;99.90;;;;;;5059622;28;20077;-81
2022/06/12 09:35:38;;;;;;;11.80;3.03;;;20.90;99.90;;;;;;5066874;28;19920;-80
2022/06/12 09:38:23;;;;;;;11.02;3.30;;;20.80;99.90;;;;;;5073756;28;20651;-79
2022/06/12 09:41:07;;;;;;;12.05;3.58;;;20.80;99.90;;;;;;5055067;28;20066;-83
2022/06/12 09:43:46;;;;;;;19.70;3.33;;;20.90;99.90;;;;;;5059844;28;20067;-83
2022/06/12 09:46:46;;;;;;;54.08;5.85;;;21.10;99.90;;;;;;5054173;28;20032;-82
2022/06/12 09:49:37;;;;;;;19.75;3.42;;;21.40;99.90;;;;;;5058031;28;20040;-82
2022/06/12 09:52:03;;;;;;;71.38;12.95;;;21.70;95.20;;;;;;5068720;28;20505;-74
2022/06/12 09:54:45;;;;;;;26.13;4.28;;;21.70;99.90;;;;;;5065926;28;20040;-74
2022/06/12 09:57:38;;;;;;;6.63;2.40;;;21.80;95.10;;;;;;5081587;28;20036;-75
2022/06/12 10:00:16;;;;;;;18.17;3.55;;;22.10;96.20;;;;;;5068277;28;20044;-74
2022/06/12 10:02:59;;;;;;;13.20;2.85;;;22.20;91.50;;;;;;5067570;28;20047;-75
2022/06/12 10:05:34;;;;;;;11.43;2.83;;;22.00;93.50;;;;;;5067749;28;20041;-74
2022/06/12 10:08:08;;;;;;;7.18;2.22;;;22.20;97.70;;;;;;5064131;28;20491;-74
2022/06/12 10:10:40;;;;;;;17.45;2.80;;;22.30;93.00;;;;;;5033212;28;20067;-74
2022/06/12 10:13:09;;;;;;;19.15;3.53;;;22.60;97.00;;;;;;5070209;28;20043;-74
2022/06/12 10:15:40;;;;;;;12.60;3.00;;;22.50;92.60;;;;;;5069509;28;20032;-75
2022/06/12 10:18:20;;;;;;;7.22;2.25;;;22.40;92.50;;;;;;5068944;28;20063;-80
2022/06/12 10:20:54;;;;;;;9.38;2.53;;;22.40;90.50;;;;;;5070750;28;20039;-80
2022/06/12 10:23:21;;;;;;;107.47;11.10;;;22.20;94.90;;;;;;5068122;28;20047;-80
2022/06/12 10:25:52;;;;;;;24.30;4.28;;;22.20;96.30;;;;;;5072432;28;20047;-79
2022/06/12 10:28:24;;;;;;;36.85;7.00;;;22.20;95.30;;;;;;5052483;28;20074;-80
2022/06/12 10:31:16;;;;;;;9.15;3.03;;;22.00;96.80;;;;;;5069401;28;20043;-79
2022/06/12 10:33:42;;;;;;;;;;;21.90;98.00;;;;;;5051428;28;20121;-80
2022/06/12 10:36:29;;;;;;;33.33;5.10;;;22.20;99.40;;;;;;5064434;28;19955;-80
2022/06/12 10:39:17;;;;;;;13.43;2.88;;;22.60;97.10;;;;;;5067600;28;20036;-79
2022/06/12 10:41:58;;;;;;;7.10;2.35;;;22.80;96.50;;;;;;5067160;28;20044;-80
2022/06/12 10:44:27;;;;;;;6.00;2.38;;;22.70;90.80;;;;;;5049005;28;20047;-79
2022/06/12 10:46:53;;;;;;;6.88;2.10;;;22.70;90.40;;;;;;5067824;28;20037;-80
2022/06/12 10:49:23;;;;;;;7.65;2.00;;;22.50;79.30;;;;;;5064424;28;20127;-79
2022/06/12 10:51:50;;;;;;;6.93;2.50;;;22.60;82.80;;;;;;5064886;28;20089;-79
2022/06/12 10:54:28;;;;;;;6.28;1.92;;;22.70;81.50;;;;;;5049407;28;20040;-79
2022/06/12 10:57:14;;;;;;;11.65;2.20;;;22.80;94.00;;;;;;5065281;28;20402;-74
2022/06/12 10:59:56;;;;;;;7.00;1.77;;;22.60;78.20;;;;;;5087203;28;20609;-74
2022/06/12 11:02:34;;;;;;;7.05;2.10;;;22.70;74.60;;;;;;5068851;28;20051;-73
2022/06/12 11:05:09;;;;;;;10.30;2.40;;;22.70;70.20;;;;;;5071102;28;20410;-73
2022/06/12 11:07:49;;;;;;;8.02;2.17;;;22.70;80.70;;;;;;5070010;28;20081;-74
2022/06/12 11:10:49;;;;;;;6.07;1.73;;;23.00;84.90;;;;;;5070310;28;20044;-73
2022/06/12 11:13:36;;;;;;;7.43;1.95;;;23.20;73.30;;;;;;5084803;28;20414;-73
2022/06/12 11:16:10;;;;;;;6.28;1.85;;;23.40;76.70;;;;;;5069116;28;20040;-74
2022/06/12 11:18:48;;;;;;;7.05;1.92;;;23.60;74.40;;;;;;5072779;28;20391;-74
2022/06/12 11:21:21;;;;;;;5.75;1.85;;;23.40;74.10;;;;;;5083618;28;20463;-74
2022/06/12 11:24:11;;;;;;;7.57;2.20;;;23.40;73.50;;;;;;5049411;28;20054;-74
2022/06/12 11:26:49;;;;;;;8.13;2.10;;;23.10;72.10;;;;;;5083919;28;20203;-74
2022/06/12 11:29:24;;;;;;;7.85;2.13;;;22.80;74.60;;;;;;5071801;28;20039;-74
2022/06/12 11:32:14;;;;;;;7.95;1.73;;;22.80;71.30;;;;;;5072170;28;20056;-74
2022/06/12 11:35:11;;;;;;;5.57;1.70;;;22.60;74.30;;;;;;5068051;28;20494;-74
2022/06/12 11:37:55;;;;;;;7.78;1.98;;;22.70;72.80;;;;;;5067692;28;20413;-74
2022/06/12 11:40:50;;;;;;;7.47;1.75;;;23.00;71.30;;;;;;5065822;28;20407;-77
2022/06/12 11:43:43;;;;;;;5.32;1.67;;;23.00;70.70;;;;;;5051102;28;20506;-78
2022/06/12 11:46:41;;;;;;;6.13;1.85;;;23.10;70.20;;;;;;5059233;28;20040;-77
2022/06/12 11:49:24;;;;;;;8.60;2.45;;;23.30;74.90;;;;;;5071101;28;20078;-76
2022/06/12 11:52:19;;;;;;;7.35;2.20;;;23.40;70.50;;;;;;5066914;28;20093;-76
2022/06/12 11:54:55;;;;;;;7.93;2.03;;;23.70;69.60;;;;;;5037235;28;20083;-74
2022/06/12 11:57:33;;;;;;;5.50;1.88;;;23.70;70.00;;;;;;5040768;28;20122;-74
2022/06/12 12:00:12;;;;;;;5.82;1.80;;;23.90;70.50;;;;;;5071285;28;20043;-73
2022/06/12 12:03:25;;;;;;;7.03;1.75;;;23.90;65.90;;;;;;5085125;28;20040;-75
2022/06/12 12:06:20;;;;;;;9.48;2.13;;;24.00;65.30;;;;;;5071654;28;20036;-73
2022/06/12 12:09:04;;;;;;;7.95;2.90;;;23.80;70.90;;;;;;5073919;28;20039;-74
2022/06/12 12:11:39;;;;;;;9.63;2.08;;;24.10;72.60;;;;;;5082512;28;20376;-73
2022/06/12 12:14:07;;;;;;;9.00;1.67;;;24.30;70.20;;;;;;5067743;28;20048;-79
2022/06/12 12:16:49;;;;;;;58.53;9.25;;;24.30;66.60;;;;;;5072855;28;20056;-79
2022/06/12 12:19:51;;;;;;;23.70;3.88;;;23.80;61.40;;;;;;5070821;28;20056;-79
2022/06/12 12:22:38;;;;;;;8.75;2.55;;;23.60;64.20;;;;;;5069568;28;20041;-79
2022/06/12 12:25:23;;;;;;;10.95;2.63;;;23.60;66.90;;;;;;5067679;28;20032;-79
2022/06/12 12:27:53;;;;;;;10.45;2.00;;;23.70;67.70;;;;;;5065500;28;20064;-79
2022/06/12 12:30:23;;;;;;;5.57;1.88;;;23.90;68.30;;;;;;5075502;28;20060;-78
2022/06/12 12:32:50;;;;;;;23.65;5.07;;;24.20;64.60;;;;;;5067512;28;20046;-79
2022/06/12 12:43:34;;;;;;;8.13;1.73;;;23.90;55.70;;;;;;5075309;28;20483;-80
2022/06/12 12:46:03;;;;;;;103.45;15.23;;;23.70;58.80;;;;;;5074680;28;20040;-80
2022/06/12 12:48:44;;;;;;;4.47;1.60;;;23.50;56.20;;;;;;5074388;28;20040;-79
2022/06/12 12:51:10;;;;;;;5.53;1.48;;;23.30;59.60;;;;;;5068123;28;20033;-79
2022/06/12 12:53:38;;;;;;;5.40;1.60;;;23.50;56.50;;;;;;5065326;28;20051;-79
2022/06/12 12:56:10;;;;;;;8.95;2.35;;;23.80;57.10;;;;;;5065945;28;20037;-78
2022/06/12 12:58:57;;;;;;;7.35;1.50;;;23.80;55.80;;;;;;5083994;28;20536;-79
2022/06/12 13:01:26;;;;;;;6.72;1.70;;;23.90;59.10;;;;;;5072219;28;20032;-79
2022/06/12 13:04:14;;;;;;;4.28;1.42;;;24.10;57.80;;;;;;5088146;28;20123;-79
2022/06/12 13:07:08;;;;;;;6.30;1.25;;;24.30;55.50;;;;;;5035744;28;20040;-79
2022/06/12 13:09:49;;;;;;;8.43;1.60;;;24.50;51.70;;;;;;5068083;28;20154;-79
2022/06/12 13:12:15;;;;;;;4.72;1.20;;;24.40;50.50;;;;;;5070257;28;20055;-79
2022/06/12 13:15:18;;;;;;;4.13;1.30;;;24.10;51.00;;;;;;5070085;28;20035;-79
2022/06/12 13:18:03;;;;;;;3.90;1.55;;;24.10;53.40;;;;;;5062205;28;20048;-79
2022/06/12 13:20:51;;;;;;;3.22;1.30;;;23.80;53.70;;;;;;5073224;28;20111;-79
2022/06/12 13:23:36;;;;;;;6.63;1.67;;;23.70;56.70;;;;;;5070923;28;20466;-79
2022/06/12 13:26:07;;;;;;;4.57;1.50;;;23.70;54.70;;;;;;5066966;28;20082;-79
2022/06/12 13:28:34;;;;;;;3.75;1.45;;;23.60;55.80;;;;;;5054863;28;20036;-79
2022/06/12 13:31:02;;;;;;;4.68;1.33;;;23.80;54.30;;;;;;5072557;28;20052;-79
2022/06/12 13:33:34;;;;;;;5.93;1.90;;;23.60;54.60;;;;;;5074330;28;20059;-79
2022/06/12 13:36:02;;;;;;;;;;;23.50;57.00;;;;;;5058058;28;20044;-79
2022/06/12 13:38:48;;;;;;;7.70;2.05;;;23.40;59.00;;;;;;5072069;28;19923;-79